Time;durP1;ratioP1;P1;durP2;ratioP2;P2;SDS_P1;SDS_P2;PMS_P1;PMS_P2;Temp;Humidity;BMP_temperature;BMP_pressure;BME280_temperature;BME280_humidity;BME280_pressure;Samples;Min_cycle;Max_cycle;Signal;HPM_P1;HPM_P2
2023/08/19 00:01:09;;;;;;;6.90;4.00;;;;;;;;;;5067290;28;20206;-79
2023/08/19 00:03:35;;;;;;;3.22;2.80;;;;;;;;;;5064470;28;20177;-79
2023/08/19 00:06:05;;;;;;;4.47;3.00;;;;;;;;;;5068513;28;20170;-79
2023/08/19 00:08:30;;;;;;;5.40;3.35;;;;;;;;;;5069028;28;20249;-80
2023/08/19 00:10:55;;;;;;;6.10;3.15;;;;;;;;;;5070086;28;20373;-79
2023/08/19 00:13:21;;;;;;;6.03;3.40;;;;;;;;;;5067848;28;20185;-79
2023/08/19 00:15:46;;;;;;;6.53;2.90;;;;;;;;;;5070879;28;20282;-79
2023/08/19 00:18:11;;;;;;;5.15;3.53;;;;;;;;;;5085515;28;20192;-79
2023/08/19 00:20:36;;;;;;;5.57;3.40;;;;;;;;;;5069076;28;20178;-79
2023/08/19 00:23:02;;;;;;;4.68;3.67;;;;;;;;;;5067167;28;20185;-80
2023/08/19 00:25:28;;;;;;;6.57;3.15;;;;;;;;;;5071065;28;20207;-80
2023/08/19 00:27:53;;;;;;;6.55;3.08;;;;;;;;;;5068203;28;20216;-79
2023/08/19 00:30:18;;;;;;;5.13;3.25;;;;;;;;;;5070013;28;20177;-79
2023/08/19 00:32:44;;;;;;;6.15;3.25;;;;;;;;;;5083615;28;20208;-79
2023/08/19 00:35:09;;;;;;;7.20;3.75;;;;;;;;;;5067973;28;20170;-80
2023/08/19 00:37:35;;;;;;;6.30;4.00;;;;;;;;;;5070169;28;20319;-80
2023/08/19 00:40:04;;;;;;;5.32;3.45;;;;;;;;;;5069943;28;20189;-79
2023/08/19 00:42:29;;;;;;;3.13;2.88;;;;;;;;;;5085228;28;20276;-79
2023/08/19 00:44:54;;;;;;;8.80;3.45;;;;;;;;;;5070464;28;20281;-79
2023/08/19 00:47:19;;;;;;;5.78;3.17;;;;;;;;;;5069753;28;20197;-79
2023/08/19 00:49:44;;;;;;;5.75;3.38;;;;;;;;;;5071037;28;20186;-79
2023/08/19 00:52:10;;;;;;;5.53;3.25;;;;;;;;;;5084300;28;20194;-79
2023/08/19 00:54:35;;;;;;;4.43;3.53;;;;;;;;;;5068790;28;20192;-79
2023/08/19 00:57:00;;;;;;;11.35;4.10;;;;;;;;;;5068352;28;20178;-80
2023/08/19 00:59:26;;;;;;;3.55;3.25;;;;;;;;;;5068494;28;20272;-79
2023/08/19 01:01:51;;;;;;;3.67;3.03;;;;;;;;;;5083742;28;20432;-79
2023/08/19 01:04:17;;;;;;;3.78;3.17;;;;;;;;;;5079051;28;20177;-79
2023/08/19 01:06:51;;;;;;;4.72;3.42;;;;;;;;;;5068806;28;20234;-79
2023/08/19 01:09:37;;;;;;;6.85;3.53;;;;;;;;;;5070264;28;20177;-79
2023/08/19 01:12:22;;;;;;;6.65;3.28;;;;;;;;;;5088746;28;20181;-79
2023/08/19 01:14:54;;;;;;;4.22;3.05;;;;;;;;;;5037263;28;20204;-79
2023/08/19 01:17:24;;;;;;;6.15;3.58;;;;;;;;;;5070819;28;20189;-79
2023/08/19 01:19:49;;;;;;;5.32;3.83;;;;;;;;;;5076319;28;20236;-79
2023/08/19 01:22:17;;;;;;;6.32;3.67;;;;;;;;;;5070851;28;20351;-79
2023/08/19 01:24:42;;;;;;;5.93;3.75;;;;;;;;;;5073319;28;20268;-79
2023/08/19 01:27:22;;;;;;;4.05;3.55;;;;;;;;;;5070515;28;20208;-79
2023/08/19 01:29:47;;;;;;;5.00;3.58;;;;;;;;;;5073844;28;20169;-80
2023/08/19 01:32:13;;;;;;;4.22;2.97;;;;;;;;;;5070761;28;20186;-79
2023/08/19 01:34:38;;;;;;;5.25;3.47;;;;;;;;;;5087220;28;20178;-80
2023/08/19 01:37:07;;;;;;;8.07;3.40;;;;;;;;;;5070752;28;20225;-79
2023/08/19 01:39:32;;;;;;;5.22;3.17;;;;;;;;;;5083367;28;20181;-79
2023/08/19 01:41:58;;;;;;;7.43;4.25;;;;;;;;;;5071083;28;20212;-79
2023/08/19 01:44:23;;;;;;;10.05;3.60;;;;;;;;;;5077592;28;20165;-79
2023/08/19 01:46:49;;;;;;;10.57;4.10;;;;;;;;;;5073787;28;20206;-79
2023/08/19 01:49:14;;;;;;;5.90;3.75;;;;;;;;;;5071980;28;20236;-79
2023/08/19 01:51:39;;;;;;;4.43;3.22;;;;;;;;;;5072493;28;20274;-79
2023/08/19 01:54:05;;;;;;;5.63;2.97;;;;;;;;;;5070769;28;20181;-79
2023/08/19 01:56:30;;;;;;;6.70;2.90;;;;;;;;;;5070814;28;20188;-79
2023/08/19 01:58:56;;;;;;;3.97;3.10;;;;;;;;;;5079577;28;20189;-79
2023/08/19 02:01:21;;;;;;;8.65;3.38;;;;;;;;;;5071867;28;20199;-80
2023/08/19 02:03:47;;;;;;;5.53;3.30;;;;;;;;;;5070978;28;20173;-79
2023/08/19 02:06:12;;;;;;;6.32;3.40;;;;;;;;;;5070902;28;20235;-79
2023/08/19 02:08:37;;;;;;;5.10;3.50;;;;;;;;;;5080926;28;20197;-79
2023/08/19 02:11:02;;;;;;;11.05;3.80;;;;;;;;;;5072194;28;20191;-79
2023/08/19 02:13:28;;;;;;;8.77;4.03;;;;;;;;;;5070631;28;20206;-79
2023/08/19 02:15:53;;;;;;;5.65;3.30;;;;;;;;;;5070877;28;20181;-80
2023/08/19 02:18:18;;;;;;;4.68;3.40;;;;;;;;;;5070089;28;20240;-80
2023/08/19 02:20:47;;;;;;;3.83;3.30;;;;;;;;;;5070043;28;20308;-80
2023/08/19 02:23:12;;;;;;;5.57;3.72;;;;;;;;;;5071151;28;20256;-79
2023/08/19 02:25:37;;;;;;;3.95;3.50;;;;;;;;;;5071918;28;20181;-80
2023/08/19 02:28:03;;;;;;;6.40;3.20;;;;;;;;;;5069656;28;20187;-80
2023/08/19 02:30:30;;;;;;;9.13;3.80;;;;;;;;;;5088674;28;20173;-80
2023/08/19 02:32:56;;;;;;;8.80;3.60;;;;;;;;;;5071671;28;20177;-80
2023/08/19 02:35:21;;;;;;;5.80;3.13;;;;;;;;;;5083879;28;20212;-79
2023/08/19 02:37:46;;;;;;;6.07;3.10;;;;;;;;;;5070491;28;20221;-79
2023/08/19 02:40:11;;;;;;;5.43;3.45;;;;;;;;;;5071762;28;20394;-80
2023/08/19 02:42:37;;;;;;;4.73;3.40;;;;;;;;;;5071090;28;20243;-80
2023/08/19 02:45:02;;;;;;;6.85;3.40;;;;;;;;;;5072546;28;20268;-79
2023/08/19 02:47:28;;;;;;;5.05;3.10;;;;;;;;;;5070658;28;20220;-80
2023/08/19 02:49:56;;;;;;;4.85;3.25;;;;;;;;;;5076835;28;20181;-80
2023/08/19 02:52:21;;;;;;;6.47;3.85;;;;;;;;;;5068773;28;20231;-80
2023/08/19 02:54:47;;;;;;;5.68;3.60;;;;;;;;;;5071446;28;20205;-79
2023/08/19 02:57:12;;;;;;;6.30;3.20;;;;;;;;;;5073136;28;20207;-80
2023/08/19 02:59:37;;;;;;;6.05;3.58;;;;;;;;;;5070009;28;20231;-79
2023/08/19 03:02:03;;;;;;;3.90;3.47;;;;;;;;;;5087746;28;20197;-80
2023/08/19 03:04:28;;;;;;;7.38;3.50;;;;;;;;;;5071138;28;20257;-79
2023/08/19 03:06:53;;;;;;;7.22;3.22;;;;;;;;;;5068165;28;20264;-79
2023/08/19 03:09:19;;;;;;;4.90;3.40;;;;;;;;;;5070636;28;20172;-79
2023/08/19 03:11:44;;;;;;;8.73;3.50;;;;;;;;;;5077598;28;20206;-80
2023/08/19 03:14:09;;;;;;;5.00;3.42;;;;;;;;;;5070716;28;20185;-79
2023/08/19 03:16:34;;;;;;;8.07;3.40;;;;;;;;;;5070824;28;20180;-79
2023/08/19 03:19:00;;;;;;;7.57;3.70;;;;;;;;;;5086578;28;20190;-79
2023/08/19 03:21:25;;;;;;;9.30;4.03;;;;;;;;;;5075807;28;20207;-79
2023/08/19 03:23:50;;;;;;;6.25;3.65;;;;;;;;;;5071042;28;20265;-80
2023/08/19 03:26:15;;;;;;;6.15;3.75;;;;;;;;;;5087594;28;20280;-79
2023/08/19 03:28:41;;;;;;;5.28;3.50;;;;;;;;;;5071398;28;20272;-80
2023/08/19 03:31:07;;;;;;;9.18;4.13;;;;;;;;;;5087141;28;20173;-80
2023/08/19 03:33:33;;;;;;;5.50;3.72;;;;;;;;;;5069989;28;20188;-79
2023/08/19 03:35:59;;;;;;;5.13;3.45;;;;;;;;;;5088590;28;20224;-79
2023/08/19 03:38:24;;;;;;;7.33;4.13;;;;;;;;;;5094907;28;20245;-79
2023/08/19 03:40:49;;;;;;;6.00;3.53;;;;;;;;;;5090475;28;20288;-79
2023/08/19 03:43:14;;;;;;;5.43;3.63;;;;;;;;;;5076289;28;20264;-79
2023/08/19 03:45:40;;;;;;;8.30;3.53;;;;;;;;;;5089828;28;20180;-79
2023/08/19 03:48:05;;;;;;;8.40;3.73;;;;;;;;;;5069411;28;20180;-79
2023/08/19 03:50:30;;;;;;;5.80;3.30;;;;;;;;;;5090386;28;20193;-80
2023/08/19 03:52:56;;;;;;;6.07;3.67;;;;;;;;;;5074737;28;20192;-79
2023/08/19 03:55:21;;;;;;;7.87;3.83;;;;;;;;;;5089267;28;20204;-79
2023/08/19 03:57:46;;;;;;;6.47;3.70;;;;;;;;;;5076878;28;20287;-79
2023/08/19 04:00:11;;;;;;;6.65;3.90;;;;;;;;;;5078492;28;20179;-79
2023/08/19 04:02:37;;;;;;;6.33;3.37;;;;;;;;;;5072984;28;20221;-79
2023/08/19 04:05:04;;;;;;;5.32;3.28;;;;;;;;;;5089979;28;20180;-79
2023/08/19 04:07:29;;;;;;;6.00;3.53;;;;;;;;;;5093218;28;20184;-79
2023/08/19 04:09:55;;;;;;;3.73;3.43;;;;;;;;;;5091140;28;20176;-80
2023/08/19 04:12:24;;;;;;;6.40;3.43;;;;;;;;;;5094672;28;20188;-79
2023/08/19 04:14:50;;;;;;;3.30;3.00;;;;;;;;;;5087519;28;20172;-79
2023/08/19 04:17:16;;;;;;;6.40;3.13;;;;;;;;;;5078179;28;20185;-79
2023/08/19 04:19:41;;;;;;;5.50;3.10;;;;;;;;;;5096181;28;20321;-79
2023/08/19 04:22:07;;;;;;;4.13;3.47;;;;;;;;;;5080562;28;20208;-80
2023/08/19 04:24:37;;;;;;;5.67;3.40;;;;;;;;;;5075740;28;20274;-79
2023/08/19 04:27:02;;;;;;;7.53;3.83;;;;;;;;;;5074797;28;20190;-79
2023/08/19 04:29:28;;;;;;;6.35;3.65;;;;;;;;;;5070743;28;20173;-79
2023/08/19 04:31:53;;;;;;;5.67;3.80;;;;;;;;;;5079308;28;20184;-79
2023/08/19 04:34:18;;;;;;;8.73;3.20;;;;;;;;;;5069694;28;20180;-79
2023/08/19 04:36:44;;;;;;;5.33;3.70;;;;;;;;;;5079587;28;20302;-80
2023/08/19 04:39:09;;;;;;;6.30;3.40;;;;;;;;;;5054417;28;20185;-79
2023/08/19 04:41:34;;;;;;;5.27;3.83;;;;;;;;;;5052880;28;20191;-79
2023/08/19 04:43:59;;;;;;;9.10;3.57;;;;;;;;;;5060596;28;20177;-79
2023/08/19 04:46:25;;;;;;;7.50;3.43;;;;;;;;;;5063712;28;20203;-79
2023/08/19 04:48:51;;;;;;;4.93;3.60;;;;;;;;;;5065688;28;20184;-80
2023/08/19 04:51:16;;;;;;;5.13;3.70;;;;;;;;;;5061169;28;20197;-79
2023/08/19 04:53:41;;;;;;;9.20;4.00;;;;;;;;;;5062825;28;20177;-79
2023/08/19 04:56:06;;;;;;;6.40;3.47;;;;;;;;;;5060791;28;20181;-80
2023/08/19 04:58:32;;;;;;;7.90;3.50;;;;;;;;;;5067623;28;20181;-79
2023/08/19 05:00:57;;;;;;;12.87;4.33;;;;;;;;;;5076581;28;20200;-79
2023/08/19 05:03:23;;;;;;;6.13;3.33;;;;;;;;;;5062507;28;20173;-79
2023/08/19 05:05:49;;;;;;;11.50;4.27;;;;;;;;;;5062391;28;20177;-79
2023/08/19 05:08:14;;;;;;;6.17;3.20;;;;;;;;;;5074219;28;20184;-79
2023/08/19 05:10:39;;;;;;;5.60;3.23;;;;;;;;;;5051777;28;20177;-80
2023/08/19 05:13:04;;;;;;;5.40;2.83;;;;;;;;;;5055488;28;20231;-78
2023/08/19 05:15:30;;;;;;;7.10;3.73;;;;;;;;;;5062543;28;20282;-79
2023/08/19 05:17:56;;;;;;;6.73;4.03;;;;;;;;;;5077287;28;20181;-79
2023/08/19 05:20:21;;;;;;;10.77;3.70;;;;;;;;;;5079746;28;20184;-79
2023/08/19 05:22:46;;;;;;;5.57;3.37;;;;;;;;;;5065468;28;20191;-79
2023/08/19 05:25:11;;;;;;;8.17;3.47;;;;;;;;;;5063188;28;20176;-79
2023/08/19 05:27:36;;;;;;;8.03;3.67;;;;;;;;;;5081201;28;20172;-79
2023/08/19 05:30:04;;;;;;;5.63;3.37;;;;;;;;;;5064271;28;20268;-79
2023/08/19 05:32:29;;;;;;;5.22;3.58;;;;;;;;;;5079170;28;20251;-79
2023/08/19 05:34:54;;;;;;;8.25;3.50;;;;;;;;;;5050684;28;20184;-79
2023/08/19 05:37:20;;;;;;;6.35;3.45;;;;;;;;;;5069191;28;20251;-79
2023/08/19 05:39:45;;;;;;;6.88;3.33;;;;;;;;;;5078618;28;20270;-80
2023/08/19 05:42:11;;;;;;;4.97;3.72;;;;;;;;;;5075420;28;20265;-79
2023/08/19 05:44:37;;;;;;;5.47;3.85;;;;;;;;;;5094981;28;20171;-79
2023/08/19 05:47:03;;;;;;;4.03;3.40;;;;;;;;;;5078659;28;20188;-79
2023/08/19 05:49:28;;;;;;;6.72;3.22;;;;;;;;;;5078535;28;20185;-79
2023/08/19 05:51:54;;;;;;;8.27;3.88;;;;;;;;;;5090222;28;20203;-79
2023/08/19 05:54:19;;;;;;;11.77;3.92;;;;;;;;;;5084787;28;20263;-79
2023/08/19 05:56:44;;;;;;;4.57;3.53;;;;;;;;;;5073303;28;20212;-79
2023/08/19 05:59:09;;;;;;;5.32;2.83;;;;;;;;;;5084843;28;20207;-79
2023/08/19 06:01:35;;;;;;;4.82;3.30;;;;;;;;;;5067288;28;20234;-79
2023/08/19 06:04:00;;;;;;;7.45;3.75;;;;;;;;;;5061239;28;20184;-79
2023/08/19 06:06:26;;;;;;;4.88;3.42;;;;;;;;;;5067853;28;20187;-79
2023/08/19 06:08:51;;;;;;;6.18;3.35;;;;;;;;;;5073780;28;20177;-79
2023/08/19 06:11:16;;;;;;;5.22;3.42;;;;;;;;;;5073412;28;20188;-79
2023/08/19 06:13:42;;;;;;;4.93;3.67;;;;;;;;;;5068466;28;20188;-79
2023/08/19 06:16:07;;;;;;;5.80;3.83;;;;;;;;;;5090331;28;20180;-80
2023/08/19 06:18:32;;;;;;;8.45;3.60;;;;;;;;;;5088380;28;20203;-79
2023/08/19 06:20:58;;;;;;;9.73;4.00;;;;;;;;;;5073295;28;20337;-80
2023/08/19 06:23:23;;;;;;;8.20;3.42;;;;;;;;;;5087408;28;20180;-79
2023/08/19 06:25:49;;;;;;;6.60;3.55;;;;;;;;;;5073269;28;20183;-80
2023/08/19 06:28:18;;;;;;;5.10;3.20;;;;;;;;;;5087548;28;20242;-79
2023/08/19 06:30:44;;;;;;;6.30;3.30;;;;;;;;;;5085239;28;20177;-80
2023/08/19 06:33:09;;;;;;;5.28;3.33;;;;;;;;;;5086804;28;20172;-79
2023/08/19 06:35:35;;;;;;;4.07;3.45;;;;;;;;;;5088353;28;20165;-79
2023/08/19 06:38:03;;;;;;;3.42;3.13;;;;;;;;;;5075239;28;20211;-80
2023/08/19 06:40:30;;;;;;;5.18;3.38;;;;;;;;;;5073793;28;20169;-80
2023/08/19 06:42:57;;;;;;;4.38;3.20;;;;;;;;;;5085871;28;20235;-79
2023/08/19 06:45:23;;;;;;;4.68;3.45;;;;;;;;;;5085487;28;20179;-79
2023/08/19 06:47:50;;;;;;;4.32;3.17;;;;;;;;;;5089732;28;20184;-79
2023/08/19 06:50:16;;;;;;;4.00;3.60;;;;;;;;;;5068007;28;20193;-79
2023/08/19 06:52:41;;;;;;;7.20;3.72;;;;;;;;;;5092270;28;20188;-79
2023/08/19 06:55:07;;;;;;;5.03;3.75;;;;;;;;;;5075989;28;20264;-79
2023/08/19 06:57:36;;;;;;;13.20;3.70;;;;;;;;;;5072748;28;20263;-79
2023/08/19 07:00:09;;;;;;;7.10;3.75;;;;;;;;;;5089472;28;20184;-80
2023/08/19 07:02:35;;;;;;;3.38;3.08;;;;;;;;;;5089147;28;20201;-79
2023/08/19 07:05:01;;;;;;;6.80;3.78;;;;;;;;;;5073790;28;20177;-79
2023/08/19 07:07:27;;;;;;;6.30;3.38;;;;;;;;;;5090163;28;20183;-79
2023/08/19 07:09:53;;;;;;;3.65;3.35;;;;;;;;;;5069766;28;20216;-79
2023/08/19 07:12:18;;;;;;;6.43;3.70;;;;;;;;;;5086202;28;20256;-79
2023/08/19 07:14:44;;;;;;;5.53;3.92;;;;;;;;;;5089166;28;20216;-79
2023/08/19 07:17:10;;;;;;;5.57;4.43;;;;;;;;;;5073441;28;20201;-80
2023/08/19 07:19:37;;;;;;;6.35;3.95;;;;;;;;;;5090267;28;20181;-80
2023/08/19 07:22:03;;;;;;;8.02;4.25;;;;;;;;;;5069761;28;20204;-79
2023/08/19 07:24:28;;;;;;;23.10;5.90;;;;;;;;;;5068158;28;20183;-79
2023/08/19 07:26:53;;;;;;;6.22;3.90;;;;;;;;;;5071388;28;20263;-80
2023/08/19 07:29:19;;;;;;;8.18;3.90;;;;;;;;;;5072453;28;20176;-76
2023/08/19 07:31:46;;;;;;;30.85;6.85;;;;;;;;;;5075458;28;20183;-80
2023/08/19 07:34:11;;;;;;;4.78;4.03;;;;;;;;;;5087571;28;20335;-80
2023/08/19 07:36:36;;;;;;;4.65;3.72;;;;;;;;;;5091755;28;20311;-79
2023/08/19 07:39:03;;;;;;;5.45;4.00;;;;;;;;;;5088762;28;20214;-80
2023/08/19 07:41:29;;;;;;;5.63;3.78;;;;;;;;;;5073778;28;20228;-80
2023/08/19 07:43:54;;;;;;;5.95;3.72;;;;;;;;;;5087721;28;20188;-77
2023/08/19 07:46:20;;;;;;;10.95;5.18;;;;;;;;;;5072045;28;20183;-77
2023/08/19 07:48:45;;;;;;;8.38;4.07;;;;;;;;;;5070039;28;20255;-76
2023/08/19 07:51:11;;;;;;;6.00;4.20;;;;;;;;;;5074188;28;20208;-77
2023/08/19 07:53:36;;;;;;;6.90;4.18;;;;;;;;;;5071517;28;20185;-76
2023/08/19 07:56:01;;;;;;;5.93;4.25;;;;;;;;;;5077918;28;20212;-77
2023/08/19 07:58:27;;;;;;;6.15;4.05;;;;;;;;;;5066786;28;20173;-77
2023/08/19 08:00:52;;;;;;;4.68;4.13;;;;;;;;;;5073657;28;20233;-77
2023/08/19 08:03:17;;;;;;;8.50;4.30;;;;;;;;;;5071867;28;20169;-77
2023/08/19 08:05:43;;;;;;;5.88;4.70;;;;;;;;;;5072702;28;20226;-77
2023/08/19 08:08:08;;;;;;;6.82;4.45;;;;;;;;;;5068984;28;20182;-77
2023/08/19 08:10:33;;;;;;;6.38;4.10;;;;;;;;;;5069010;28;20177;-77
2023/08/19 08:12:59;;;;;;;7.30;4.55;;;;;;;;;;5088241;28;20181;-76
2023/08/19 08:15:24;;;;;;;4.40;3.97;;;;;;;;;;5072439;28;20214;-80
2023/08/19 08:17:50;;;;;;;6.88;4.95;;;;;;;;;;5073001;28;20177;-80
2023/08/19 08:20:16;;;;;;;5.20;4.53;;;;;;;;;;5091823;28;20188;-79
2023/08/19 08:22:41;;;;;;;6.53;3.97;;;;;;;;;;5083167;28;20228;-80
2023/08/19 08:25:09;;;;;;;5.35;4.70;;;;;;;;;;5070994;28;20189;-80
2023/08/19 08:27:34;;;;;;;4.40;4.00;;;;;;;;;;5087873;28;20184;-80
2023/08/19 08:29:59;;;;;;;4.93;3.95;;;;;;;;;;5070266;28;20298;-80
2023/08/19 08:32:25;;;;;;;5.63;4.65;;;;;;;;;;5084291;28;20240;-79
2023/08/19 08:34:50;;;;;;;7.93;4.90;;;;;;;;;;5072045;28;20184;-80
2023/08/19 08:37:15;;;;;;;8.00;4.57;;;;;;;;;;5067857;28;20229;-80
2023/08/19 08:39:40;;;;;;;6.75;4.53;;;;;;;;;;5069718;28;20265;-80
2023/08/19 08:42:08;;;;;;;7.30;4.88;;;;;;;;;;5068478;28;20205;-80
2023/08/19 08:44:36;;;;;;;6.93;4.70;;;;;;;;;;5062562;28;20253;-80
2023/08/19 08:47:01;;;;;;;5.03;4.30;;;;;;;;;;5069581;28;20269;-79
2023/08/19 08:49:27;;;;;;;4.70;4.30;;;;;;;;;;5068352;28;20260;-80
2023/08/19 08:51:53;;;;;;;6.20;4.57;;;;;;;;;;5065185;28;20212;-80
2023/08/19 08:54:19;;;;;;;5.53;4.70;;;;;;;;;;5065344;28;20181;-80
2023/08/19 08:56:44;;;;;;;8.35;4.70;;;;;;;;;;5066504;28;20178;-80
2023/08/19 08:59:10;;;;;;;6.63;4.25;;;;;;;;;;5066690;28;20282;-79
2023/08/19 09:01:36;;;;;;;6.80;4.35;;;;;;;;;;5068366;28;20196;-80
2023/08/19 09:04:04;;;;;;;5.20;4.07;;;;;;;;;;5063293;28;20177;-79
2023/08/19 09:06:29;;;;;;;5.43;4.25;;;;;;;;;;5056253;28;20187;-78
2023/08/19 09:09:02;;;;;;;5.93;4.05;;;;;;;;;;5085188;28;20190;-80
2023/08/19 09:11:28;;;;;;;7.72;3.85;;;;;;;;;;5071653;28;20189;-80
2023/08/19 09:13:56;;;;;;;5.10;3.88;;;;;;;;;;5067577;28;20190;-80
2023/08/19 09:16:21;;;;;;;7.72;4.20;;;;;;;;;;5065577;28;20185;-80
2023/08/19 09:18:47;;;;;;;4.32;3.60;;;;;;;;;;5065941;28;20307;-80
2023/08/19 09:21:12;;;;;;;7.55;4.30;;;;;;;;;;5065338;28;20203;-80
2023/08/19 09:23:38;;;;;;;6.28;4.57;;;;;;;;;;5070366;28;20207;-80
2023/08/19 09:26:03;;;;;;;5.70;3.90;;;;;;;;;;5064918;28;20181;-80
2023/08/19 09:28:32;;;;;;;4.93;3.92;;;;;;;;;;5083246;28;20178;-80
2023/08/19 09:30:58;;;;;;;4.55;3.85;;;;;;;;;;5075949;28;20238;-80
2023/08/19 09:33:23;;;;;;;16.50;4.65;;;;;;;;;;5072298;28;20241;-80
2023/08/19 09:35:55;;;;;;;6.75;3.97;;;;;;;;;;5089515;28;20173;-79
2023/08/19 09:38:22;;;;;;;8.98;4.03;;;;;;;;;;5073637;28;20184;-80
2023/08/19 09:41:17;;;;;;;5.57;3.85;;;;;;;;;;5081006;28;20172;-79
2023/08/19 09:43:45;;;;;;;5.22;3.90;;;;;;;;;;5064717;28;20291;-79
2023/08/19 09:46:10;;;;;;;6.72;3.88;;;;;;;;;;5093890;28;20172;-80
2023/08/19 09:48:35;;;;;;;6.20;3.97;;;;;;;;;;5091772;28;20190;-80
2023/08/19 09:51:01;;;;;;;6.20;4.35;;;;;;;;;;5078377;28;20205;-80
2023/08/19 09:53:30;;;;;;;6.20;4.03;;;;;;;;;;5075602;28;20177;-80
2023/08/19 09:55:55;;;;;;;6.07;4.80;;;;;;;;;;5089806;28;20230;-80
2023/08/19 09:58:20;;;;;;;4.68;4.07;;;;;;;;;;5076678;28;20181;-80
2023/08/19 10:00:46;;;;;;;10.50;4.10;;;;;;;;;;5090799;28;20180;-80
2023/08/19 10:03:11;;;;;;;4.47;4.07;;;;;;;;;;5074476;28;20183;-80
2023/08/19 10:05:40;;;;;;;8.05;3.92;;;;;;;;;;5095727;28;20217;-80
2023/08/19 10:08:13;;;;;;;5.93;4.22;;;;;;;;;;5092378;28;20185;-80
2023/08/19 10:10:42;;;;;;;5.43;4.40;;;;;;;;;;5079350;28;20189;-80
2023/08/19 10:13:08;;;;;;;6.55;3.97;;;;;;;;;;5090623;28;20184;-80
2023/08/19 10:15:36;;;;;;;4.75;3.65;;;;;;;;;;5092344;28;20190;-80
2023/08/19 10:18:05;;;;;;;6.03;4.35;;;;;;;;;;5072836;28;20262;-79
2023/08/19 10:20:32;;;;;;;7.53;4.63;;;;;;;;;;5075425;28;20183;-80
2023/08/19 10:22:58;;;;;;;6.20;3.85;;;;;;;;;;5075583;28;20204;-80
2023/08/19 10:25:24;;;;;;;8.23;4.25;;;;;;;;;;5076191;28;20239;-80
2023/08/19 10:27:49;;;;;;;4.78;4.35;;;;;;;;;;5069771;28;20192;-79
2023/08/19 10:30:33;;;;;;;5.78;4.13;;;;;;;;;;5073095;28;20174;-80
2023/08/19 10:33:24;;;;;;;6.93;4.35;;;;;;;;;;5086699;28;20179;-80
2023/08/19 10:35:57;;;;;;;6.72;4.18;;;;;;;;;;5073005;28;20211;-79
2023/08/19 10:38:23;;;;;;;5.85;3.78;;;;;;;;;;5075690;28;20263;-80
2023/08/19 10:40:59;;;;;;;6.65;4.13;;;;;;;;;;5089719;28;20263;-80
2023/08/19 10:43:25;;;;;;;6.32;4.50;;;;;;;;;;5085008;28;20172;-80
2023/08/19 10:45:56;;;;;;;6.90;4.55;;;;;;;;;;5074136;28;20257;-79
2023/08/19 10:48:30;;;;;;;4.80;3.95;;;;;;;;;;5077748;28;20267;-80
2023/08/19 10:50:56;;;;;;;5.78;3.63;;;;;;;;;;5072090;28;20196;-80
2023/08/19 10:53:21;;;;;;;5.95;4.10;;;;;;;;;;5070018;28;20182;-80
2023/08/19 10:55:55;;;;;;;4.50;3.97;;;;;;;;;;5086640;28;20176;-80
2023/08/19 10:58:21;;;;;;;5.88;4.18;;;;;;;;;;5072769;28;20231;-80
2023/08/19 11:00:47;;;;;;;6.07;4.35;;;;;;;;;;5073843;28;20244;-80
2023/08/19 11:03:12;;;;;;;7.45;5.50;;;;;;;;;;5078594;28;20169;-79
2023/08/19 11:05:47;;;;;;;6.38;3.95;;;;;;;;;;5067507;28;20177;-80
2023/08/19 11:08:12;;;;;;;4.70;4.30;;;;;;;;;;5073209;28;20168;-79
2023/08/19 11:10:38;;;;;;;5.95;4.57;;;;;;;;;;5075570;28;20173;-79
2023/08/19 11:13:03;;;;;;;5.30;4.35;;;;;;;;;;5077235;28;20188;-80
2023/08/19 11:15:28;;;;;;;4.53;4.13;;;;;;;;;;5090867;28;20187;-80
2023/08/19 11:17:54;;;;;;;8.02;7.32;;;;;;;;;;5074311;28;20192;-79
2023/08/19 11:20:19;;;;;;;4.78;4.28;;;;;;;;;;5072582;28;20172;-77
2023/08/19 11:22:45;;;;;;;7.32;4.30;;;;;;;;;;5062807;28;20248;-80
2023/08/19 11:25:12;;;;;;;4.80;4.00;;;;;;;;;;5087995;28;20212;-79
2023/08/19 11:27:37;;;;;;;3.92;3.60;;;;;;;;;;5078887;28;20176;-80
2023/08/19 11:30:03;;;;;;;7.20;5.07;;;;;;;;;;5085182;28;20181;-80
2023/08/19 11:32:29;;;;;;;6.32;3.88;;;;;;;;;;5089905;28;20210;-80
2023/08/19 11:34:54;;;;;;;5.88;3.88;;;;;;;;;;5072921;28;20198;-79
2023/08/19 11:37:20;;;;;;;4.80;4.28;;;;;;;;;;5090283;28;20252;-80
2023/08/19 11:39:45;;;;;;;5.25;4.25;;;;;;;;;;5071247;28;20271;-80
2023/08/19 11:42:11;;;;;;;5.97;3.83;;;;;;;;;;5090227;28;20235;-79
2023/08/19 11:44:36;;;;;;;6.10;4.45;;;;;;;;;;5072987;28;20228;-80
2023/08/19 11:47:01;;;;;;;4.68;4.03;;;;;;;;;;5088816;28;20184;-80
2023/08/19 11:49:30;;;;;;;5.18;4.25;;;;;;;;;;5073982;28;20173;-80
2023/08/19 11:51:55;;;;;;;7.57;4.95;;;;;;;;;;5071586;28;20238;-80
2023/08/19 11:54:22;;;;;;;7.05;4.60;;;;;;;;;;5082300;28;20176;-79
2023/08/19 11:56:51;;;;;;;5.53;4.47;;;;;;;;;;5085479;28;20185;-80
2023/08/19 11:59:16;;;;;;;4.45;4.05;;;;;;;;;;5087938;28;20180;-80
2023/08/19 12:01:42;;;;;;;5.03;4.30;;;;;;;;;;5070936;28;20193;-80
2023/08/19 12:04:11;;;;;;;5.43;4.20;;;;;;;;;;5071777;28;20181;-80
2023/08/19 12:06:37;;;;;;;6.55;4.32;;;;;;;;;;5091739;28;20173;-80
2023/08/19 12:09:02;;;;;;;9.75;4.53;;;;;;;;;;5089972;28;20176;-79
2023/08/19 12:11:28;;;;;;;5.35;4.47;;;;;;;;;;5075391;28;20180;-79
2023/08/19 12:13:53;;;;;;;7.82;5.30;;;;;;;;;;5074078;28;20188;-80
2023/08/19 12:16:19;;;;;;;6.65;4.95;;;;;;;;;;5087524;28;20196;-80
2023/08/19 12:18:44;;;;;;;5.53;4.28;;;;;;;;;;5073144;28;20288;-80
2023/08/19 12:21:09;;;;;;;5.82;4.38;;;;;;;;;;5090906;28;20207;-80
2023/08/19 12:23:35;;;;;;;5.53;4.63;;;;;;;;;;5072735;28;20195;-80
2023/08/19 12:26:00;;;;;;;8.63;5.13;;;;;;;;;;5071037;28;20180;-80
2023/08/19 12:28:26;;;;;;;5.05;4.53;;;;;;;;;;5074068;28;20248;-80
2023/08/19 12:30:52;;;;;;;7.15;4.75;;;;;;;;;;5074011;28;20173;-80
2023/08/19 12:33:17;;;;;;;5.60;5.07;;;;;;;;;;5081361;28;20242;-80
2023/08/19 12:35:44;;;;;;;6.30;4.70;;;;;;;;;;5071055;28;20246;-79
2023/08/19 12:38:11;;;;;;;5.95;4.50;;;;;;;;;;5086689;28;20177;-80
2023/08/19 12:40:36;;;;;;;5.28;4.78;;;;;;;;;;5071487;28;20219;-79
2023/08/19 12:43:01;;;;;;;7.28;5.97;;;;;;;;;;5071095;28;20237;-80
2023/08/19 12:45:27;;;;;;;8.52;5.28;;;;;;;;;;5071678;28;20173;-80
2023/08/19 12:47:52;;;;;;;5.40;4.75;;;;;;;;;;5066548;28;20258;-79
2023/08/19 12:50:18;;;;;;;6.13;5.45;;;;;;;;;;5068456;28;20205;-80
2023/08/19 12:52:44;;;;;;;6.10;4.70;;;;;;;;;;5066951;28;20184;-80
2023/08/19 12:55:09;;;;;;;7.25;5.40;;;;;;;;;;5084920;28;20184;-80
2023/08/19 12:57:42;;;;;;;7.53;5.38;;;;;;;;;;5082412;28;20196;-80
2023/08/19 13:00:07;;;;;;;5.60;4.75;;;;;;;;;;5084241;28;20231;-80
2023/08/19 13:02:33;;;;;;;5.95;5.03;;;;;;;;;;5070524;28;20232;-80
2023/08/19 13:04:59;;;;;;;6.45;5.35;;;;;;;;;;5087050;28;20184;-80
2023/08/19 13:07:24;;;;;;;5.00;4.60;;;;;;;;;;5074265;28;20177;-80
2023/08/19 13:09:50;;;;;;;6.95;5.32;;;;;;;;;;5076678;28;20172;-79
2023/08/19 13:12:15;;;;;;;6.88;5.22;;;;;;;;;;5074900;28;20181;-79
2023/08/19 13:14:41;;;;;;;6.05;4.97;;;;;;;;;;5073344;28;20235;-80
2023/08/19 13:17:07;;;;;;;5.65;5.13;;;;;;;;;;5090449;28;20181;-80
2023/08/19 13:19:33;;;;;;;6.05;5.47;;;;;;;;;;5076342;28;20329;-79
2023/08/19 13:21:58;;;;;;;5.43;4.97;;;;;;;;;;5094091;28;20228;-80
2023/08/19 13:24:23;;;;;;;7.25;5.13;;;;;;;;;;5088256;28;20221;-80
2023/08/19 13:26:49;;;;;;;6.60;6.07;;;;;;;;;;5078259;28;20175;-80
2023/08/19 13:29:14;;;;;;;5.90;5.30;;;;;;;;;;5094084;28;20169;-80
2023/08/19 13:31:39;;;;;;;4.95;4.43;;;;;;;;;;5074551;28;20326;-80
2023/08/19 13:34:05;;;;;;;6.18;5.68;;;;;;;;;;5072570;28;20188;-80
2023/08/19 13:36:31;;;;;;;6.13;5.53;;;;;;;;;;5072736;28;20228;-80
2023/08/19 13:38:57;;;;;;;5.53;5.07;;;;;;;;;;5089900;28;20177;-79
2023/08/19 13:41:22;;;;;;;8.38;5.07;;;;;;;;;;5077476;28;20200;-80
2023/08/19 13:43:47;;;;;;;9.70;5.70;;;;;;;;;;5097250;28;20165;-80
2023/08/19 13:46:12;;;;;;;6.63;5.45;;;;;;;;;;5086803;28;20260;-80
2023/08/19 13:48:38;;;;;;;7.03;5.28;;;;;;;;;;5091445;28;20181;-81
2023/08/19 13:51:03;;;;;;;6.85;5.47;;;;;;;;;;5091542;28;20196;-80
2023/08/19 13:53:29;;;;;;;6.10;4.70;;;;;;;;;;5073334;28;20172;-80
2023/08/19 13:55:54;;;;;;;7.80;5.07;;;;;;;;;;5075897;28;20164;-80
2023/08/19 13:58:19;;;;;;;10.48;5.28;;;;;;;;;;5071595;28;20180;-80
2023/08/19 14:00:45;;;;;;;10.05;5.90;;;;;;;;;;5073830;28;20181;-80
2023/08/19 14:03:10;;;;;;;11.27;5.57;;;;;;;;;;5075115;28;20208;-80
2023/08/19 14:05:35;;;;;;;6.53;5.20;;;;;;;;;;5074721;28;20181;-80
2023/08/19 14:08:00;;;;;;;7.88;5.47;;;;;;;;;;5071574;28;20173;-80
2023/08/19 14:10:25;;;;;;;6.53;5.03;;;;;;;;;;5092704;28;20164;-80
2023/08/19 14:12:51;;;;;;;8.32;4.80;;;;;;;;;;5069237;28;20227;-80
2023/08/19 14:15:16;;;;;;;6.60;5.15;;;;;;;;;;5074803;28;20188;-80
2023/08/19 14:17:41;;;;;;;8.68;5.97;;;;;;;;;;5079846;28;20206;-80
2023/08/19 14:20:11;;;;;;;5.70;5.10;;;;;;;;;;5072284;28;20177;-80
2023/08/19 14:22:37;;;;;;;6.95;5.05;;;;;;;;;;5074120;28;20228;-80
2023/08/19 14:25:03;;;;;;;11.13;6.00;;;;;;;;;;5074770;28;20176;-80
2023/08/19 14:27:28;;;;;;;8.48;4.97;;;;;;;;;;5074797;28;20177;-80
2023/08/19 14:29:53;;;;;;;5.38;4.88;;;;;;;;;;5069920;28;20178;-80
2023/08/19 14:32:19;;;;;;;10.30;5.13;;;;;;;;;;5072313;28;20234;-80
2023/08/19 14:34:44;;;;;;;8.40;4.97;;;;;;;;;;5089458;28;20177;-80
2023/08/19 14:37:09;;;;;;;5.95;5.03;;;;;;;;;;5073328;28;20315;-80